Sealyon — 2CGJ2 — position and weather

sailwx.info

Track history (hours):
 
Tides and Currents Weather Stations Pressure Air Temp Water Temp Dewpoint Dewpoint Depression Visibility Wind Speed Wind Dir Waves Ship Positions

Sealyon

Last reported at 2017-Dec-19 05:43 UTC. Time now 2018-Feb-20 21:17 UTC.
Position N 16°15' W 061°57'.
Warning: this ship's position is months out of date.

Length 62 m; draft 3.2 m.

Type: Pleasure craft. MMSI: 235072538.

Date/timePositionNaut miles runAvg speedWind from/ knotsBaromVisibWave heightAir tempDewpointWater temp
2017-Dec-19 05:43N 16°15' W 061°57'314.2
2017-Dec-19 05:30N 16°18' W 061°57'714.2
2017-Dec-19 05:00N 16°25' W 061°58'714.2
2017-Dec-19 04:30N 16°32' W 061°60'714.1
2017-Dec-19 04:00N 16°39' W 062°01'714.4
2017-Dec-19 03:30N 16°45' W 062°05'714.1
2017-Dec-19 03:00N 16°51' W 062°09'714.0
2017-Dec-19 02:30N 16°57' W 062°13'7113.4
2017-Dec-18 21:10N 17°55' W 062°55'  
2017-Dec-13 03:07N 18°02' W 063°05'0 0.0
2017-Dec-13 02:58N 18°02' W 063°05'0 0.0
2017-Dec-13 02:28N 18°02' W 063°05'0 0.0
2017-Dec-13 01:56N 18°02' W 063°05'0 0.0
2017-Dec-13 01:29N 18°02' W 063°05'0 0.0
2017-Dec-13 00:58N 18°02' W 063°05'0 0.6
2017-Dec-13 00:27N 18°02' W 063°06'5 8.9
2017-Dec-12 23:55N 17°59' W 063°02'  
Track history (hours):
 
Tides and Currents Weather Stations Pressure Air Temp Water Temp Dewpoint Dewpoint Depression Visibility Wind Speed Wind Dir Waves Ship Positions

Sealyon

Last reported at 2017-Dec-19 05:43 UTC. Time now 2018-Feb-20 21:17 UTC.
Position N 16°15' W 061°57'.
Warning: this ship's position is months out of date.

Length 62 m; draft 3.2 m.

Type: Pleasure craft. MMSI: 235072538.

Date/timePositionNaut miles runAvg speedWind from/ knotsBaromVisibWave heightAir tempDewpointWater temp
2017-Dec-19 05:43N 16°15' W 061°57'314.2
2017-Dec-19 05:30N 16°18' W 061°57'714.2
2017-Dec-19 05:00N 16°25' W 061°58'714.2
2017-Dec-19 04:30N 16°32' W 061°60'714.1
2017-Dec-19 04:00N 16°39' W 062°01'714.4
2017-Dec-19 03:30N 16°45' W 062°05'714.1
2017-Dec-19 03:00N 16°51' W 062°09'714.0
2017-Dec-19 02:30N 16°57' W 062°13'7113.4
2017-Dec-18 21:10N 17°55' W 062°55'  
2017-Dec-13 03:07N 18°02' W 063°05'0 0.0
2017-Dec-13 02:58N 18°02' W 063°05'0 0.0
2017-Dec-13 02:28N 18°02' W 063°05'0 0.0
2017-Dec-13 01:56N 18°02' W 063°05'0 0.0
2017-Dec-13 01:29N 18°02' W 063°05'0 0.0
2017-Dec-13 00:58N 18°02' W 063°05'0 0.6
2017-Dec-13 00:27N 18°02' W 063°06'5 8.9
2017-Dec-12 23:55N 17°59' W 063°02'  

Dump ship's entire track history